createdAt,value
2023-04-01T00:01:15.960Z,38.48
2023-04-01T00:03:43.076Z,38.50
2023-04-01T00:06:10.646Z,38.46
2023-04-01T00:08:37.222Z,38.59
2023-04-01T00:11:04.048Z,38.56
2023-04-01T00:13:30.838Z,38.62
2023-04-01T00:15:57.772Z,38.65
2023-04-01T00:18:26.552Z,38.71
2023-04-01T00:20:53.128Z,38.70
2023-04-01T00:23:19.931Z,38.71
2023-04-01T00:25:47.862Z,38.77
2023-04-01T00:28:16.036Z,38.76
2023-04-01T00:30:42.620Z,38.79
2023-04-01T00:33:09.293Z,38.83
2023-04-01T00:35:36.430Z,38.84
2023-04-01T00:38:06.423Z,38.92
2023-04-01T00:40:37.931Z,38.90
2023-04-01T00:43:05.041Z,38.94
2023-04-01T00:45:37.013Z,38.94
2023-04-01T00:48:07.310Z,38.97
2023-04-01T00:50:34.701Z,39.08
2023-04-01T00:53:02.635Z,39.06
2023-04-01T00:55:30.655Z,39.08
2023-04-01T00:57:57.992Z,39.03
2023-04-01T01:00:24.726Z,39.06
2023-04-01T01:02:51.376Z,38.98
2023-04-01T01:05:18.138Z,39.03
2023-04-01T01:07:57.034Z,38.95
2023-04-01T01:10:35.921Z,38.89
2023-04-01T01:13:27.013Z,38.89
2023-04-01T01:15:59.365Z,38.81
2023-04-01T01:18:40.353Z,38.82
2023-04-01T01:21:43.613Z,38.79
2023-04-01T01:24:29.131Z,38.83
2023-04-01T01:27:14.897Z,38.79
2023-04-01T01:29:43.234Z,38.79
2023-04-01T01:32:19.034Z,38.77
2023-04-01T01:34:45.902Z,38.71
2023-04-01T01:37:16.194Z,38.83
2023-04-01T01:39:44.036Z,38.78
2023-04-01T01:42:12.150Z,38.76
2023-04-01T01:44:38.762Z,38.73
2023-04-01T01:47:05.478Z,38.73
2023-04-01T01:49:32.795Z,38.77
2023-04-01T01:51:59.406Z,38.82
2023-04-01T01:54:25.991Z,38.77
2023-04-01T01:57:06.195Z,38.68
2023-04-01T01:59:32.926Z,38.64
2023-04-01T02:02:00.561Z,38.65
2023-04-01T02:04:28.075Z,38.63
2023-04-01T02:06:59.140Z,38.59
2023-04-01T02:09:25.720Z,38.49
2023-04-01T02:11:58.420Z,38.52
2023-04-01T02:14:26.579Z,38.47
2023-04-01T02:17:07.220Z,38.44
2023-04-01T02:19:36.170Z,38.42
2023-04-01T02:22:04.037Z,38.44
2023-04-01T02:24:31.884Z,38.45
2023-04-01T02:26:58.484Z,38.37
2023-04-01T02:29:26.394Z,38.41
2023-04-01T02:31:53.132Z,38.42
2023-04-01T02:34:20.953Z,38.43
2023-04-01T02:36:50.786Z,38.38
2023-04-01T02:39:17.522Z,38.41
2023-04-01T02:41:45.007Z,38.32
2023-04-01T02:44:14.684Z,38.29
2023-04-01T02:46:41.346Z,38.29
2023-04-01T02:49:08.076Z,38.29
2023-04-01T02:51:34.872Z,38.27
2023-04-01T02:54:01.582Z,38.33
2023-04-01T02:56:28.154Z,38.31
2023-04-01T02:58:55.969Z,38.34
2023-04-01T03:01:22.843Z,38.28
2023-04-01T03:03:49.471Z,38.31
2023-04-01T03:06:16.414Z,38.35
2023-04-01T03:08:43.185Z,38.39
2023-04-01T03:11:11.025Z,38.36
2023-04-01T03:13:37.694Z,38.34
2023-04-01T03:16:04.646Z,38.34
2023-04-01T03:18:31.271Z,38.35
2023-04-01T03:20:57.926Z,38.31
2023-04-01T03:23:25.343Z,38.34
2023-04-01T03:25:52.060Z,38.30
2023-04-01T03:28:18.740Z,38.32
2023-04-01T03:30:45.437Z,38.33
2023-04-01T03:33:12.810Z,38.27
2023-04-01T03:35:39.437Z,38.26
2023-04-01T03:38:06.112Z,38.29
2023-04-01T03:40:34.047Z,38.24
2023-04-01T03:43:00.895Z,38.37
2023-04-01T03:45:27.636Z,38.31
2023-04-01T03:47:54.786Z,38.29
2023-04-01T03:50:21.402Z,38.36
2023-04-01T03:52:48.043Z,38.35
2023-04-01T03:55:14.631Z,38.36
2023-04-01T03:57:41.306Z,38.28
2023-04-01T04:00:09.944Z,38.36
2023-04-01T04:02:36.731Z,38.36
2023-04-01T04:05:03.527Z,38.39
2023-04-01T04:07:30.178Z,38.38
2023-04-01T04:09:56.780Z,38.41
2023-04-01T04:12:23.402Z,38.41
2023-04-01T04:14:49.971Z,38.37
2023-04-01T04:17:17.404Z,38.38
2023-04-01T04:19:44.099Z,38.30
2023-04-01T04:22:10.784Z,38.37
2023-04-01T04:24:37.584Z,38.34
2023-04-01T04:27:04.497Z,38.31
2023-04-01T04:29:31.138Z,38.33
2023-04-01T04:31:57.813Z,38.29
2023-04-01T04:34:24.643Z,38.34
2023-04-01T04:36:51.252Z,38.24
2023-04-01T04:39:18.200Z,38.30
2023-04-01T04:41:44.827Z,38.28
2023-04-01T04:44:11.521Z,38.30
2023-04-01T04:46:40.302Z,38.27
2023-04-01T04:49:07.693Z,38.24
2023-04-01T04:51:37.007Z,38.26
2023-04-01T04:54:04.277Z,38.28
2023-04-01T04:56:31.781Z,38.22
2023-04-01T04:58:58.653Z,38.06
2023-04-01T05:01:25.669Z,37.66
2023-04-01T05:03:52.688Z,36.94
2023-04-01T05:06:20.988Z,36.53
2023-04-01T05:08:48.880Z,36.29
2023-04-01T05:11:19.314Z,36.12
2023-04-01T05:13:45.979Z,35.87
2023-04-01T05:16:18.036Z,35.62
2023-04-01T05:18:44.826Z,35.24
2023-04-01T05:21:12.110Z,34.65
2023-04-01T05:23:38.730Z,34.27
2023-04-01T05:26:12.867Z,33.95
2023-04-01T05:28:39.521Z,33.69
2023-04-01T05:31:06.421Z,33.49
2023-04-01T05:33:33.226Z,33.29
2023-04-01T05:36:16.135Z,33.15
2023-04-01T05:38:44.124Z,33.00
2023-04-01T05:41:10.921Z,32.90
2023-04-01T05:43:37.981Z,32.82
2023-04-01T05:46:04.590Z,32.71
2023-04-01T05:48:31.210Z,32.64
2023-04-01T05:50:57.881Z,32.52
2023-04-01T05:53:24.500Z,32.43
2023-04-01T05:55:51.126Z,32.34
2023-04-01T05:58:17.694Z,32.30
2023-04-01T06:00:44.475Z,32.22
2023-04-01T06:03:11.226Z,32.16
2023-04-01T06:05:43.531Z,32.08
2023-04-01T06:08:17.629Z,32.02
2023-04-01T06:10:51.922Z,31.99
2023-04-01T06:13:34.110Z,31.90
2023-04-01T06:16:22.629Z,31.84
2023-04-01T06:19:00.353Z,31.78
2023-04-01T06:21:52.678Z,31.73
2023-04-01T06:24:37.532Z,31.70
2023-04-01T06:27:19.763Z,31.65
2023-04-01T06:29:51.805Z,31.62
2023-04-01T06:32:36.940Z,31.63
2023-04-01T06:35:37.663Z,31.57
2023-04-01T06:38:26.085Z,31.57
2023-04-01T06:41:16.025Z,31.52
2023-04-01T06:44:01.038Z,31.51
2023-04-01T06:46:39.208Z,31.50
2023-04-01T06:49:15.114Z,31.46
2023-04-01T06:51:44.539Z,31.47
2023-04-01T06:54:17.931Z,31.39
2023-04-01T06:56:47.454Z,31.41
2023-04-01T06:59:23.285Z,31.36
2023-04-01T07:01:55.102Z,31.36
2023-04-01T07:04:22.099Z,31.35
2023-04-01T07:06:57.173Z,31.33
2023-04-01T07:09:26.736Z,31.31
2023-04-01T07:11:54.713Z,31.32
2023-04-01T07:14:27.111Z,31.25
2023-04-01T07:17:07.722Z,31.25
2023-04-01T07:19:42.341Z,31.24
2023-04-01T07:22:21.194Z,31.26
2023-04-01T07:24:47.796Z,31.20
2023-04-01T07:27:14.601Z,31.17
2023-04-01T07:29:41.454Z,31.15
2023-04-01T07:32:26.926Z,31.11
2023-04-01T07:35:23.852Z,31.10
2023-04-01T07:38:22.081Z,31.04
2023-04-01T07:41:00.867Z,31.02
2023-04-01T07:43:37.952Z,31.01
2023-04-01T07:46:27.599Z,30.99
2023-04-01T07:48:56.987Z,30.97
2023-04-01T07:51:41.710Z,30.94
2023-04-01T07:54:30.990Z,30.93
2023-04-01T07:57:13.379Z,30.95
2023-04-01T07:59:43.000Z,30.94
2023-04-01T08:02:34.439Z,30.94
2023-04-01T08:05:03.916Z,30.97
2023-04-01T08:08:01.730Z,30.91
2023-04-01T08:10:35.935Z,30.87
2023-04-01T08:13:17.114Z,30.87
2023-04-01T08:16:04.498Z,30.83
2023-04-01T08:18:47.856Z,30.86
2023-04-01T08:21:29.759Z,30.80
2023-04-01T08:24:00.349Z,30.76
2023-04-01T08:26:37.235Z,30.73
2023-04-01T08:29:11.700Z,30.71
2023-04-01T08:31:44.461Z,30.75
2023-04-01T08:34:20.620Z,30.76
2023-04-01T08:36:51.180Z,30.75
2023-04-01T08:39:33.042Z,30.75
2023-04-01T08:42:18.602Z,30.73
2023-04-01T08:45:01.124Z,30.72
2023-04-01T08:47:51.477Z,30.71
2023-04-01T08:50:25.350Z,30.67
2023-04-01T08:53:07.256Z,30.67
2023-04-01T08:55:45.964Z,30.67
2023-04-01T08:58:34.840Z,30.68
2023-04-01T09:01:15.461Z,30.67
2023-04-01T09:03:48.558Z,30.71
2023-04-01T09:06:26.095Z,30.72
2023-04-01T09:08:55.330Z,30.75
2023-04-01T09:11:59.155Z,30.84
2023-04-01T09:14:34.848Z,30.99
2023-04-01T09:17:22.709Z,31.10
2023-04-01T09:20:06.758Z,31.14
2023-04-01T09:22:52.608Z,31.20
2023-04-01T09:25:50.610Z,31.28
2023-04-01T09:28:29.008Z,31.35
2023-04-01T09:31:37.800Z,31.43
2023-04-01T09:34:13.573Z,31.53
2023-04-01T09:36:45.046Z,31.64
2023-04-01T09:39:24.443Z,31.73
2023-04-01T09:42:18.683Z,31.83
2023-04-01T09:45:01.656Z,31.94
2023-04-01T09:48:01.725Z,32.02
2023-04-01T09:50:33.589Z,32.05
2023-04-01T09:53:04.955Z,32.17
2023-04-01T09:56:10.433Z,32.20
2023-04-01T09:59:00.538Z,32.28
2023-04-01T10:02:04.601Z,32.32
2023-04-01T10:05:08.689Z,32.38
2023-04-01T10:07:44.126Z,32.44
2023-04-01T10:10:31.856Z,32.48
2023-04-01T10:13:13.607Z,32.56
2023-04-01T10:15:58.415Z,32.61
2023-04-01T10:18:53.996Z,32.69
2023-04-01T10:21:45.536Z,32.75
2023-04-01T10:24:27.811Z,32.79
2023-04-01T10:27:04.524Z,32.84
2023-04-01T10:29:56.077Z,32.87
2023-04-01T10:32:36.415Z,32.90
2023-04-01T10:35:48.229Z,32.95
2023-04-01T10:38:28.171Z,33.01
2023-04-01T10:41:19.234Z,33.02
2023-04-01T10:43:51.762Z,33.13
2023-04-01T10:46:27.292Z,33.18
2023-04-01T10:48:59.791Z,33.19
2023-04-01T10:51:51.049Z,33.23
2023-04-01T10:54:32.848Z,33.31
2023-04-01T10:57:34.990Z,33.38
2023-04-01T11:00:20.854Z,33.44
2023-04-01T11:03:19.559Z,33.47
2023-04-01T11:05:52.265Z,33.48
2023-04-01T11:08:31.084Z,33.53
2023-04-01T11:11:00.219Z,33.55
2023-04-01T11:13:45.936Z,33.62
2023-04-01T11:16:36.998Z,33.65
2023-04-01T11:19:21.481Z,33.66
2023-04-01T11:22:15.500Z,33.72
2023-04-01T11:25:01.314Z,33.71
2023-04-01T11:27:49.742Z,33.73
2023-04-01T11:30:47.398Z,33.73
2023-04-01T11:33:27.537Z,33.75
2023-04-01T11:36:16.364Z,33.79
2023-04-01T11:39:11.521Z,33.75
2023-04-01T11:41:49.426Z,33.79
2023-04-01T11:44:29.876Z,33.85
2023-04-01T11:47:05.082Z,33.87
2023-04-01T11:50:10.149Z,33.94
2023-04-01T11:53:02.045Z,33.94
2023-04-01T11:55:50.564Z,33.95
2023-04-01T11:58:36.377Z,34.00
2023-04-01T12:01:12.242Z,34.05
2023-04-01T12:03:43.467Z,34.04
2023-04-01T12:06:32.039Z,34.03
2023-04-01T12:09:46.778Z,34.05
2023-04-01T12:12:19.317Z,34.09
2023-04-01T12:15:12.010Z,34.10
2023-04-01T12:17:52.325Z,34.11
2023-04-01T12:20:25.055Z,34.13
2023-04-01T12:23:24.117Z,34.14
2023-04-01T12:26:05.654Z,34.13
2023-04-01T12:28:50.516Z,34.15
2023-04-01T12:31:28.489Z,34.14
2023-04-01T12:33:58.099Z,34.16
2023-04-01T12:36:51.386Z,34.19
2023-04-01T12:39:51.889Z,34.19
2023-04-01T12:42:40.212Z,34.19
2023-04-01T12:45:24.674Z,34.19
2023-04-01T12:48:00.523Z,34.20
2023-04-01T12:50:32.780Z,34.25
2023-04-01T12:53:11.448Z,34.23
2023-04-01T12:55:53.476Z,34.22
2023-04-01T12:58:42.047Z,34.23
2023-04-01T13:01:18.968Z,34.18
2023-04-01T13:04:06.850Z,34.24
2023-04-01T13:06:37.840Z,34.23
2023-04-01T13:09:07.529Z,34.23
2023-04-01T13:11:48.951Z,34.23
2023-04-01T13:14:29.100Z,34.21
2023-04-01T13:16:58.437Z,34.25
2023-04-01T13:20:01.946Z,34.26
2023-04-01T13:22:58.346Z,34.26
2023-04-01T13:25:31.190Z,34.24
2023-04-01T13:28:01.329Z,34.26
2023-04-01T13:30:32.072Z,34.25
2023-04-01T13:33:17.061Z,34.27
2023-04-01T13:36:04.457Z,34.24
2023-04-01T13:38:43.170Z,34.24
2023-04-01T13:41:31.477Z,34.23
2023-04-01T13:44:17.235Z,34.17
2023-04-01T13:47:04.081Z,34.26
2023-04-01T13:49:53.732Z,34.22
2023-04-01T13:52:58.032Z,34.25
2023-04-01T13:55:36.898Z,34.27
2023-04-01T13:58:13.658Z,34.22
2023-04-01T14:01:03.907Z,34.29
2023-04-01T14:03:52.029Z,34.25
2023-04-01T14:06:24.524Z,34.25
2023-04-01T14:08:57.211Z,34.31
2023-04-01T14:11:23.708Z,34.35
2023-04-01T14:13:50.149Z,34.28
2023-04-01T14:16:29.093Z,34.33
2023-04-01T14:19:07.609Z,34.33
2023-04-01T14:21:52.883Z,34.32
2023-04-01T14:24:24.825Z,34.29
2023-04-01T14:27:12.792Z,34.31
2023-04-01T14:29:54.676Z,34.35
2023-04-01T14:32:35.080Z,34.36
2023-04-01T14:35:23.500Z,34.32
2023-04-01T14:38:04.137Z,34.35
2023-04-01T14:40:52.466Z,34.36
2023-04-01T14:43:23.668Z,34.40
2023-04-01T14:46:35.374Z,34.40
2023-04-01T14:49:32.921Z,34.38
2023-04-01T14:52:25.327Z,34.39
2023-04-01T14:54:51.989Z,34.42
2023-04-01T14:57:32.011Z,34.42
2023-04-01T15:00:14.162Z,34.41
2023-04-01T15:03:00.926Z,34.44
2023-04-01T15:05:46.668Z,34.47
2023-04-01T15:08:17.419Z,34.49
2023-04-01T15:10:56.087Z,34.47
2023-04-01T15:13:45.700Z,34.48
2023-04-01T15:16:27.308Z,34.51
2023-04-01T15:19:10.305Z,34.62
2023-04-01T15:21:52.466Z,34.67
2023-04-01T15:24:55.688Z,34.70
2023-04-01T15:27:43.181Z,34.72
2023-04-01T15:30:35.640Z,34.79
2023-04-01T15:33:31.361Z,34.79
2023-04-01T15:36:35.755Z,34.76
2023-04-01T15:39:20.644Z,34.79
2023-04-01T15:42:21.574Z,34.76
2023-04-01T15:44:54.105Z,34.77
2023-04-01T15:47:26.917Z,34.71
2023-04-01T15:50:18.645Z,34.68
2023-04-01T15:53:10.966Z,34.67
2023-04-01T15:55:46.360Z,34.69
2023-04-01T15:58:25.408Z,34.69
2023-04-01T16:00:58.875Z,34.68
2023-04-01T16:03:31.744Z,34.70
2023-04-01T16:06:07.661Z,34.64
2023-04-01T16:08:59.683Z,34.66
2023-04-01T16:11:44.156Z,34.56
2023-04-01T16:14:30.993Z,34.56
2023-04-01T16:17:12.517Z,34.57
2023-04-01T16:19:57.281Z,34.49
2023-04-01T16:22:45.747Z,34.46
2023-04-01T16:25:18.796Z,34.54
2023-04-01T16:28:17.542Z,34.50
2023-04-01T16:30:49.270Z,34.52
2023-04-01T16:33:46.840Z,34.51
2023-04-01T16:36:31.834Z,34.48
2023-04-01T16:39:47.599Z,34.49
2023-04-01T16:42:39.498Z,34.53
2023-04-01T16:45:08.932Z,34.52
2023-04-01T16:47:55.687Z,34.46
2023-04-01T16:50:24.445Z,34.45
2023-04-01T16:53:02.046Z,34.47
2023-04-01T16:56:02.438Z,34.52
2023-04-01T16:58:33.800Z,34.46
2023-04-01T17:01:07.092Z,34.51
2023-04-01T17:03:39.296Z,34.53
2023-04-01T17:06:41.440Z,34.50
2023-04-01T17:09:16.624Z,34.50
2023-04-01T17:12:01.643Z,34.53
2023-04-01T17:14:30.321Z,34.53
2023-04-01T17:17:11.357Z,34.56
2023-04-01T17:20:04.568Z,34.57
2023-04-01T17:22:35.466Z,34.55
2023-04-01T17:25:17.565Z,34.58
2023-04-01T17:28:10.897Z,34.59
2023-04-01T17:30:47.038Z,34.65
2023-04-01T17:33:20.600Z,34.66
2023-04-01T17:36:08.395Z,34.68
2023-04-01T17:39:12.795Z,34.68
2023-04-01T17:41:48.437Z,34.69
2023-04-01T17:44:27.173Z,34.73
2023-04-01T17:46:59.716Z,34.71
2023-04-01T17:49:42.445Z,34.74
2023-04-01T17:52:31.516Z,34.77
2023-04-01T17:55:16.884Z,34.80
2023-04-01T17:57:53.261Z,34.77
2023-04-01T18:00:50.635Z,34.81
2023-04-01T18:03:57.553Z,34.75
2023-04-01T18:06:46.098Z,34.77
2023-04-01T18:09:25.146Z,34.80
2023-04-01T18:11:57.585Z,34.81
2023-04-01T18:14:39.425Z,34.81
2023-04-01T18:17:26.349Z,34.78
2023-04-01T18:20:27.789Z,34.80
2023-04-01T18:23:36.201Z,34.81
2023-04-01T18:26:13.498Z,34.83
2023-04-01T18:28:45.225Z,34.88
2023-04-01T18:31:41.119Z,34.87
2023-04-01T18:34:11.575Z,34.86
2023-04-01T18:36:45.908Z,34.91
2023-04-01T18:39:20.123Z,34.86
2023-04-01T18:42:00.428Z,34.89
2023-04-01T18:44:48.767Z,34.89
2023-04-01T18:47:23.473Z,34.86
2023-04-01T18:50:22.318Z,34.91
2023-04-01T18:52:51.322Z,34.91
2023-04-01T18:55:36.280Z,34.92
2023-04-01T18:58:20.003Z,34.91
2023-04-01T19:01:02.328Z,34.88
2023-04-01T19:03:41.363Z,34.88
2023-04-01T19:06:21.451Z,34.92
2023-04-01T19:08:48.210Z,34.91
2023-04-01T19:11:20.877Z,34.93
2023-04-01T19:14:17.142Z,34.94
2023-04-01T19:17:03.248Z,34.91
2023-04-01T19:19:53.878Z,34.94
2023-04-01T19:23:03.505Z,34.93
2023-04-01T19:25:51.103Z,34.94
2023-04-01T19:28:22.068Z,34.94
2023-04-01T19:31:02.898Z,34.95
2023-04-01T19:33:32.771Z,34.98
2023-04-01T19:36:21.308Z,34.98
2023-04-01T19:38:56.364Z,35.02
2023-04-01T19:41:26.377Z,34.98
2023-04-01T19:44:00.503Z,34.98
2023-04-01T19:46:30.671Z,34.98
2023-04-01T19:49:25.607Z,34.99
2023-04-01T19:51:52.540Z,34.99
2023-04-01T19:55:03.918Z,35.03
2023-04-01T19:58:02.005Z,35.01
2023-04-01T20:00:38.897Z,35.01
2023-04-01T20:03:30.248Z,35.07
2023-04-01T20:05:59.480Z,35.08
2023-04-01T20:08:35.054Z,35.13
2023-04-01T20:11:07.433Z,35.14
2023-04-01T20:13:37.313Z,35.18
2023-04-01T20:16:06.156Z,35.17
2023-04-01T20:18:41.107Z,35.22
2023-04-01T20:21:19.385Z,35.16
2023-04-01T20:23:58.031Z,35.19
2023-04-01T20:26:27.781Z,35.17
2023-04-01T20:29:31.708Z,35.18
2023-04-01T20:32:24.346Z,35.19
2023-04-01T20:35:06.983Z,35.20
2023-04-01T20:37:48.293Z,35.20
2023-04-01T20:40:34.494Z,35.18
2023-04-01T20:43:34.811Z,35.25
2023-04-01T20:46:40.954Z,35.26
2023-04-01T20:49:40.174Z,35.36
2023-04-01T20:52:15.702Z,35.27
2023-04-01T20:55:04.129Z,35.34
2023-04-01T20:57:39.588Z,35.34
2023-04-01T21:01:03.141Z,35.39
2023-04-01T21:04:07.790Z,35.34
2023-04-01T21:06:54.603Z,35.36
2023-04-01T21:09:36.321Z,35.42
2023-04-01T21:12:15.370Z,35.44
2023-04-01T21:15:19.827Z,35.42
2023-04-01T21:18:15.578Z,35.44
2023-04-01T21:21:13.222Z,35.53
2023-04-01T21:24:01.152Z,35.54
2023-04-01T21:27:12.708Z,35.54
2023-04-01T21:29:39.173Z,35.53
2023-04-01T21:32:21.126Z,35.55
2023-04-01T21:34:56.475Z,35.54
2023-04-01T21:37:41.822Z,35.57
2023-04-01T21:40:33.519Z,35.55
2023-04-01T21:43:25.828Z,35.53
2023-04-01T21:45:55.316Z,35.53
2023-04-01T21:48:35.868Z,35.45
2023-04-01T21:51:47.033Z,35.43
2023-04-01T21:54:34.704Z,35.40
2023-04-01T21:57:23.045Z,35.38
2023-04-01T22:00:12.466Z,35.31
2023-04-01T22:03:00.812Z,35.32
2023-04-01T22:05:46.008Z,35.35
2023-04-01T22:08:53.127Z,35.42
2023-04-01T22:11:33.578Z,35.31
2023-04-01T22:14:04.301Z,35.36
2023-04-01T22:16:38.328Z,35.31
2023-04-01T22:19:35.958Z,35.34
2023-04-01T22:22:09.155Z,35.38
2023-04-01T22:24:54.997Z,35.35
2023-04-01T22:27:42.740Z,35.39
2023-04-01T22:30:12.479Z,35.38
2023-04-01T22:32:43.787Z,35.38
2023-04-01T22:35:25.948Z,35.44
2023-04-01T22:37:58.515Z,35.37
2023-04-01T22:40:34.800Z,35.38
2023-04-01T22:43:10.124Z,35.41
2023-04-01T22:46:12.225Z,35.45
2023-04-01T22:48:48.663Z,35.45
2023-04-01T22:51:27.489Z,35.40
2023-04-01T22:54:17.368Z,35.47
2023-04-01T22:56:57.663Z,35.43
2023-04-01T22:59:40.707Z,35.52
2023-04-01T23:02:14.950Z,35.54
2023-04-01T23:04:43.588Z,35.46
2023-04-01T23:07:33.246Z,35.52
2023-04-01T23:09:59.865Z,35.46
2023-04-01T23:12:26.711Z,35.50
2023-04-01T23:14:57.888Z,35.57
2023-04-01T23:17:43.667Z,35.47
2023-04-01T23:20:51.912Z,35.55
2023-04-01T23:23:30.848Z,35.49
2023-04-01T23:26:08.969Z,35.53
2023-04-01T23:28:51.122Z,35.55
2023-04-01T23:31:39.634Z,35.55
2023-04-01T23:34:12.272Z,35.69
2023-04-01T23:36:41.255Z,35.59
2023-04-01T23:39:32.592Z,35.57
2023-04-01T23:42:18.902Z,35.55
2023-04-01T23:44:45.541Z,35.59
2023-04-01T23:47:19.462Z,35.64
2023-04-01T23:49:49.103Z,35.56
2023-04-01T23:52:30.935Z,35.66
2023-04-01T23:55:02.710Z,35.64
2023-04-01T23:57:33.988Z,35.70
